Terminal Aerodrome Forecast
Issued by NWS Sterling, VA

Home | Current Version | Previous Version | Text Only | Print | Product List | Glossary On
Versions: 1 2 3 4 5 6 7 8 9 10 11 12 13 14 15 16 17 18 19 20 21 22 23 24 25
000
FTUS41 KLWX 132000 AAB
TAFDCA
TAF AMD
KDCA 132034Z 1321/1418 21013KT P6SM VCTS FEW050CB SCT090
     FM140000 20010KT P6SM VCTS BKN090CB
     FM140600 22007KT P6SM BKN060
     FM141000 23006KT P6SM BKN120=

USA.gov is the U.S. government's official web portal to all federal, state and local government web resources and services.